Time;durP1;ratioP1;P1;durP2;ratioP2;P2;SDS_P1;SDS_P2;PMS_P1;PMS_P2;Temp;Humidity;BMP_temperature;BMP_pressure;BME280_temperature;BME280_humidity;BME280_pressure;Samples;Min_cycle;Max_cycle;Signal;HPM_P1;HPM_P2
2023/05/13 00:01:03;;;;;;;426.83;401.20;;;11.40;39.90;;;;;;5012847;28;20219;-70
2023/05/13 00:03:29;;;;;;;618.93;577.30;;;11.30;40.60;;;;;;5012655;28;20249;-70
2023/05/13 00:05:55;;;;;;;577.60;542.53;;;11.30;41.80;;;;;;5014436;28;20230;-70
2023/05/13 00:08:21;;;;;;;474.03;446.03;;;11.20;42.40;;;;;;5014168;28;20176;-69
2023/05/13 00:10:46;;;;;;;459.87;433.77;;;11.30;42.50;;;;;;5014029;28;20464;-70
2023/05/13 00:13:12;;;;;;;444.93;418.60;;;11.20;42.40;;;;;;5012371;28;20770;-70
2023/05/13 00:15:39;;;;;;;427.20;403.33;;;11.20;43.10;;;;;;5014008;28;20180;-70
2023/05/13 00:18:05;;;;;;;412.17;388.13;;;11.10;44.10;;;;;;5013684;28;20184;-70
2023/05/13 00:20:30;;;;;;;393.77;371.60;;;11.20;44.50;;;;;;5013947;28;20423;-70
2023/05/13 00:22:56;;;;;;;427.60;401.93;;;11.20;43.60;;;;;;5013469;28;20556;-70
2023/05/13 00:25:21;;;;;;;481.37;451.50;;;11.20;44.60;;;;;;5012378;28;20180;-70
2023/05/13 00:27:47;;;;;;;427.03;401.37;;;11.20;45.30;;;;;;5013778;28;20186;-69
2023/05/13 00:30:13;;;;;;;346.27;326.10;;;11.30;45.10;;;;;;5013612;28;20177;-70
2023/05/13 00:32:38;;;;;;;522.50;491.13;;;11.30;44.00;;;;;;5011920;28;20310;-70
2023/05/13 00:35:04;;;;;;;465.40;438.47;;;11.30;44.70;;;;;;5014005;28;20652;-70
2023/05/13 00:37:30;;;;;;;459.77;431.00;;;11.20;45.70;;;;;;5012960;28;20617;-70
2023/05/13 00:39:56;;;;;;;379.83;358.47;;;11.10;46.70;;;;;;5013870;28;20423;-70
2023/05/13 00:42:21;;;;;;;417.07;391.57;;;11.10;47.40;;;;;;5014309;28;20584;-70
2023/05/13 00:44:47;;;;;;;437.47;411.17;;;11.00;47.30;;;;;;5012933;28;20180;-70
2023/05/13 00:47:12;;;;;;;372.27;351.03;;;11.00;48.00;;;;;;5013760;28;20179;-70
2023/05/13 00:49:38;;;;;;;434.70;409.67;;;10.90;49.60;;;;;;5013579;28;20539;-70
2023/05/13 00:52:04;;;;;;;481.63;452.50;;;10.90;49.50;;;;;;5014086;28;20196;-70
2023/05/13 00:54:30;;;;;;;419.00;393.60;;;10.90;49.80;;;;;;5014390;28;20410;-71
2023/05/13 00:56:57;;;;;;;400.07;375.60;;;10.90;49.70;;;;;;5013722;28;20431;-70
2023/05/13 00:59:24;;;;;;;446.47;419.23;;;10.90;50.00;;;;;;5013624;28;20262;-71
2023/05/13 01:02:08;;;;;;;457.90;430.70;;;10.90;50.10;;;;;;5013262;28;20828;-70
2023/05/13 01:04:45;;;;;;;378.87;357.00;;;10.80;49.60;;;;;;5013601;28;20415;-70
2023/05/13 01:07:28;;;;;;;378.87;356.80;;;10.80;49.90;;;;;;5013682;28;20896;-70
2023/05/13 01:10:14;;;;;;;428.53;402.97;;;10.80;50.50;;;;;;5013655;28;20434;-70
2023/05/13 01:12:42;;;;;;;359.30;338.77;;;10.80;50.60;;;;;;5013506;28;20442;-69
2023/05/13 01:15:14;;;;;;;345.63;325.40;;;10.70;52.00;;;;;;5013724;28;20418;-69
2023/05/13 01:18:00;;;;;;;385.73;363.33;;;10.80;50.60;;;;;;5013465;28;20771;-70
2023/05/13 01:20:27;;;;;;;336.20;316.63;;;10.80;50.40;;;;;;5012207;28;20431;-70
2023/05/13 01:22:52;;;;;;;426.80;401.00;;;10.70;50.80;;;;;;5012745;28;21059;-69
2023/05/13 01:25:18;;;;;;;408.77;384.17;;;10.70;50.40;;;;;;5012827;28;20502;-70
2023/05/13 01:27:44;;;;;;;399.53;376.77;;;10.70;50.10;;;;;;5012704;28;20566;-69
2023/05/13 01:30:10;;;;;;;387.17;365.90;;;10.70;50.40;;;;;;5012548;28;20182;-69
2023/05/13 01:32:37;;;;;;;394.73;371.03;;;10.70;49.80;;;;;;5010972;28;20309;-69
2023/05/13 01:35:04;;;;;;;454.97;427.83;;;10.80;49.40;;;;;;5011352;28;20423;-69
2023/05/13 01:37:30;;;;;;;360.77;340.10;;;10.70;48.70;;;;;;5011612;28;20424;-71
2023/05/13 01:39:55;;;;;;;425.03;398.90;;;10.70;48.20;;;;;;5012656;28;20777;-72
2023/05/13 01:42:25;;;;;;;392.60;368.83;;;10.70;48.70;;;;;;5011544;28;20216;-70
2023/05/13 01:44:51;;;;;;;461.50;432.80;;;10.80;48.40;;;;;;5011554;28;20595;-71
2023/05/13 01:47:16;;;;;;;371.93;349.57;;;10.80;48.80;;;;;;5011263;28;20454;-70
2023/05/13 01:49:42;;;;;;;393.30;370.13;;;10.70;49.30;;;;;;5011252;28;20186;-71
2023/05/13 01:52:08;;;;;;;419.77;394.97;;;10.70;48.20;;;;;;5012573;28;20175;-70
2023/05/13 01:54:33;;;;;;;398.60;374.33;;;10.70;49.10;;;;;;5012656;28;20545;-70
2023/05/13 01:56:59;;;;;;;347.17;326.27;;;10.70;48.50;;;;;;5012950;28;20180;-70
2023/05/13 01:59:24;;;;;;;371.80;349.70;;;10.70;48.30;;;;;;5013438;28;20596;-69
2023/05/13 02:01:50;;;;;;;401.60;377.63;;;10.70;48.70;;;;;;5011675;28;20217;-70
2023/05/13 02:04:16;;;;;;;363.63;341.93;;;10.70;49.10;;;;;;5012375;28;20299;-70
2023/05/13 02:06:41;;;;;;;355.13;334.57;;;10.70;48.80;;;;;;5012702;28;20560;-69
2023/05/13 02:09:07;;;;;;;398.23;373.07;;;10.70;49.20;;;;;;5012995;28;20177;-70
2023/05/13 02:11:34;;;;;;;447.70;422.17;;;10.70;49.00;;;;;;5012359;28;20665;-70
2023/05/13 02:14:00;;;;;;;409.90;385.53;;;10.80;49.00;;;;;;5012266;28;20566;-69
2023/05/13 02:16:25;;;;;;;427.67;401.90;;;10.80;48.70;;;;;;5012757;28;20505;-69
2023/05/13 02:18:51;;;;;;;359.77;338.63;;;10.80;48.70;;;;;;5012542;28;20250;-69
2023/05/13 02:21:16;;;;;;;335.10;315.03;;;10.80;49.20;;;;;;5012017;28;20176;-70
2023/05/13 02:23:42;;;;;;;347.77;326.10;;;10.80;49.70;;;;;;5010359;28;20250;-69
2023/05/13 02:26:07;;;;;;;380.20;358.00;;;10.80;49.20;;;;;;5011124;28;20172;-69
2023/05/13 02:28:33;;;;;;;412.00;388.17;;;10.80;49.90;;;;;;5010363;28;20180;-69
2023/05/13 02:30:58;;;;;;;377.23;354.93;;;10.80;50.00;;;;;;5012083;28;20178;-69
2023/05/13 02:33:24;;;;;;;479.87;451.17;;;10.80;51.00;;;;;;5011546;28;20208;-69
2023/05/13 02:35:49;;;;;;;553.23;520.70;;;10.80;51.00;;;;;;5010520;28;20179;-69
2023/05/13 02:38:15;;;;;;;440.50;415.30;;;10.70;52.00;;;;;;5011268;28;20258;-70
2023/05/13 02:40:41;;;;;;;385.50;363.30;;;10.70;52.60;;;;;;5011953;28;20204;-69
2023/05/13 02:43:06;;;;;;;455.73;429.10;;;10.60;54.00;;;;;;5011472;28;20207;-69
2023/05/13 02:45:32;;;;;;;394.43;372.10;;;10.60;54.80;;;;;;5011703;28;20187;-69
2023/05/13 02:47:58;;;;;;;485.80;456.13;;;10.60;54.90;;;;;;5011993;28;20172;-69
2023/05/13 02:50:23;;;;;;;509.17;479.83;;;10.70;54.70;;;;;;5011745;28;20535;-70
2023/05/13 02:52:49;;;;;;;456.97;429.87;;;10.60;55.20;;;;;;5011449;28;20200;-69
2023/05/13 02:55:15;;;;;;;444.80;419.90;;;10.60;55.40;;;;;;5014396;28;20203;-70
2023/05/13 02:57:41;;;;;;;460.97;434.70;;;10.60;55.80;;;;;;5015348;28;20204;-70
2023/05/13 03:00:08;;;;;;;487.80;458.73;;;10.60;55.80;;;;;;5015258;28;20184;-69
2023/05/13 03:02:34;;;;;;;548.33;515.63;;;10.60;55.50;;;;;;5013348;28;20466;-69
2023/05/13 03:04:59;;;;;;;396.80;373.13;;;10.60;55.20;;;;;;5013778;28;20502;-69
2023/05/13 03:07:25;;;;;;;424.10;400.90;;;10.60;55.40;;;;;;5015114;28;20411;-69
2023/05/13 03:09:50;;;;;;;397.10;374.70;;;10.60;55.20;;;;;;5015146;28;20188;-69
2023/05/13 03:12:16;;;;;;;416.87;393.00;;;10.60;55.40;;;;;;5013505;28;20212;-69
2023/05/13 03:14:43;;;;;;;452.43;425.73;;;10.60;55.80;;;;;;5015073;28;20176;-69
2023/05/13 03:17:09;;;;;;;417.87;393.43;;;10.60;55.90;;;;;;5015205;28;20502;-69
2023/05/13 03:19:38;;;;;;;407.67;383.93;;;10.60;56.00;;;;;;5014907;28;20423;-69
2023/05/13 03:22:04;;;;;;;433.67;407.03;;;10.60;56.00;;;;;;5014418;28;20458;-68
2023/05/13 03:24:30;;;;;;;471.17;444.73;;;10.60;56.50;;;;;;5014876;28;20411;-69
2023/05/13 03:26:56;;;;;;;428.33;404.00;;;10.60;56.30;;;;;;5014635;28;20475;-68
2023/05/13 03:29:22;;;;;;;387.30;365.27;;;10.60;56.60;;;;;;5014756;28;20211;-68
2023/05/13 03:31:48;;;;;;;358.40;337.30;;;10.60;56.00;;;;;;5014462;28;20434;-68
2023/05/13 03:34:14;;;;;;;378.73;357.47;;;10.60;55.20;;;;;;5014518;28;20218;-68
2023/05/13 03:36:40;;;;;;;397.43;374.67;;;10.60;55.40;;;;;;5013332;28;20821;-68
2023/05/13 03:39:05;;;;;;;445.47;419.17;;;10.60;55.30;;;;;;5013194;28;20427;-68
2023/05/13 03:41:31;;;;;;;422.77;398.10;;;10.60;56.40;;;;;;5014072;28;20418;-69
2023/05/13 03:43:57;;;;;;;398.60;375.87;;;10.60;55.40;;;;;;5013190;28;20574;-69
2023/05/13 03:46:22;;;;;;;372.83;350.83;;;10.60;55.80;;;;;;5013181;28;20182;-68
2023/05/13 03:48:48;;;;;;;381.80;359.50;;;10.60;54.90;;;;;;5014381;28;20566;-68
2023/05/13 03:51:14;;;;;;;473.83;445.23;;;10.60;55.60;;;;;;5014313;28;20182;-68
2023/05/13 03:53:40;;;;;;;411.30;387.50;;;10.60;55.00;;;;;;5013831;28;20439;-68
2023/05/13 03:56:06;;;;;;;474.67;446.13;;;10.60;55.60;;;;;;5014268;28;20418;-68
2023/05/13 03:58:32;;;;;;;420.97;395.23;;;10.60;55.00;;;;;;5013131;28;20917;-68
2023/05/13 04:00:57;;;;;;;359.63;339.23;;;10.70;55.30;;;;;;5014330;28;20258;-69
2023/05/13 04:03:23;;;;;;;455.47;428.63;;;10.60;55.10;;;;;;5013803;28;20239;-68
2023/05/13 04:05:49;;;;;;;404.33;380.43;;;10.60;55.70;;;;;;5013339;28;20207;-68
2023/05/13 04:08:15;;;;;;;447.93;421.43;;;10.60;56.20;;;;;;5014529;28;20183;-70
2023/05/13 04:10:41;;;;;;;465.30;438.30;;;10.70;55.70;;;;;;5012657;28;20419;-68
2023/05/13 04:13:06;;;;;;;420.33;396.37;;;10.60;55.10;;;;;;5013867;28;20229;-68
2023/05/13 04:15:32;;;;;;;418.10;393.60;;;10.70;55.10;;;;;;5014137;28;20192;-69
2023/05/13 04:17:58;;;;;;;439.07;414.73;;;10.60;54.90;;;;;;5013892;28;20191;-69
2023/05/13 04:20:23;;;;;;;454.83;426.43;;;10.60;54.70;;;;;;5013878;28;20195;-68
2023/05/13 04:22:50;;;;;;;409.90;385.80;;;10.60;55.40;;;;;;5013388;28;20215;-68
2023/05/13 04:25:16;;;;;;;441.93;417.47;;;10.60;55.90;;;;;;5013687;28;20194;-71
2023/05/13 04:27:41;;;;;;;439.10;414.63;;;10.60;54.70;;;;;;5012364;28;20505;-69
2023/05/13 04:30:07;;;;;;;420.93;396.47;;;10.60;53.60;;;;;;5013718;28;20207;-68
2023/05/13 04:32:33;;;;;;;385.03;362.53;;;10.60;54.30;;;;;;5013749;28;20278;-68
2023/05/13 04:34:59;;;;;;;390.33;368.10;;;10.50;54.20;;;;;;5013582;28;20853;-69
2023/05/13 04:37:25;;;;;;;478.17;447.77;;;10.40;54.40;;;;;;5013461;28;20255;-68
2023/05/13 04:39:50;;;;;;;374.90;353.03;;;10.40;53.70;;;;;;5012088;28;20195;-68
2023/05/13 04:42:16;;;;;;;380.37;358.30;;;10.50;54.40;;;;;;5011648;28;20481;-69
2023/05/13 04:44:42;;;;;;;446.47;420.17;;;10.50;53.80;;;;;;5013385;28;20191;-70
2023/05/13 04:47:08;;;;;;;423.73;399.90;;;10.60;53.40;;;;;;5013416;28;20442;-69
2023/05/13 04:49:33;;;;;;;336.73;317.90;;;10.60;51.90;;;;;;5013283;28;20458;-69
2023/05/13 04:52:03;;;;;;;405.07;381.97;;;10.60;51.90;;;;;;5011631;28;20238;-69
2023/05/13 04:54:29;;;;;;;370.90;349.70;;;10.60;51.50;;;;;;5013047;28;20552;-69
2023/05/13 04:56:55;;;;;;;412.70;388.63;;;10.60;51.20;;;;;;5011784;28;20431;-69
2023/05/13 04:59:21;;;;;;;400.43;378.57;;;10.60;51.00;;;;;;5013372;28;20193;-70
2023/05/13 05:01:46;;;;;;;437.53;412.77;;;10.50;51.30;;;;;;5012878;28;20208;-69
2023/05/13 05:04:12;;;;;;;477.63;449.13;;;10.60;51.00;;;;;;5013133;28;20571;-69
2023/05/13 05:06:38;;;;;;;349.27;329.90;;;10.50;50.90;;;;;;5011815;28;20190;-69
2023/05/13 05:09:03;;;;;;;371.73;350.03;;;10.50;51.80;;;;;;5013036;28;20195;-69
2023/05/13 05:11:29;;;;;;;375.20;352.80;;;10.50;51.00;;;;;;5011612;28;20184;-70
2023/05/13 05:13:55;;;;;;;381.83;355.93;;;10.50;50.80;;;;;;5012945;28;20330;-69
2023/05/13 05:16:20;;;;;;;594.77;558.30;;;10.50;51.60;;;;;;5013100;28;20444;-68
2023/05/13 05:18:46;;;;;;;385.53;362.53;;;10.50;51.20;;;;;;5013104;28;20180;-69
2023/05/13 05:21:12;;;;;;;385.33;363.33;;;10.40;51.70;;;;;;5013120;28;20183;-69
2023/05/13 05:23:37;;;;;;;462.57;433.27;;;10.50;51.80;;;;;;5011574;28;20262;-70
2023/05/13 05:26:03;;;;;;;352.30;332.30;;;10.50;50.70;;;;;;5013326;28;20180;-69
2023/05/13 05:28:29;;;;;;;387.30;364.67;;;10.40;50.70;;;;;;5013955;28;20446;-69
2023/05/13 05:30:55;;;;;;;448.67;421.77;;;10.40;50.60;;;;;;5013883;28;20770;-68
2023/05/13 05:33:21;;;;;;;476.87;448.40;;;10.40;49.60;;;;;;5013179;28;20508;-69
2023/05/13 05:35:47;;;;;;;390.60;368.00;;;10.40;49.80;;;;;;5013566;28;20532;-69
2023/05/13 05:38:13;;;;;;;462.00;434.70;;;10.40;49.20;;;;;;5012673;28;20422;-67
2023/05/13 05:40:40;;;;;;;352.47;331.50;;;10.40;49.70;;;;;;5011482;28;20237;-68
2023/05/13 05:43:06;;;;;;;462.30;434.43;;;10.40;50.00;;;;;;5012238;28;20871;-68
2023/05/13 05:45:36;;;;;;;354.43;334.63;;;10.40;48.70;;;;;;5012500;28;20415;-68
2023/05/13 05:48:02;;;;;;;386.53;363.30;;;10.50;49.30;;;;;;5011683;28;20427;-68
2023/05/13 05:50:28;;;;;;;332.77;313.03;;;10.50;48.80;;;;;;5011427;28;20423;-70
2023/05/13 05:52:54;;;;;;;487.67;458.50;;;10.50;48.70;;;;;;5012483;28;20442;-70
2023/05/13 05:55:19;;;;;;;400.43;377.17;;;10.60;48.00;;;;;;5012622;28;20909;-68
2023/05/13 05:57:45;;;;;;;363.43;341.00;;;10.50;47.90;;;;;;5012623;28;20270;-68
2023/05/13 06:00:11;;;;;;;348.17;327.53;;;10.60;47.80;;;;;;5012794;28;20180;-68
2023/05/13 06:02:37;;;;;;;347.67;326.60;;;10.60;48.00;;;;;;5012095;28;20302;-68
2023/05/13 06:05:03;;;;;;;337.83;317.73;;;10.80;47.30;;;;;;5012075;28;20453;-67
2023/05/13 06:07:28;;;;;;;340.43;320.23;;;10.90;45.90;;;;;;5012122;28;20183;-69
2023/05/13 06:09:54;;;;;;;340.63;320.37;;;11.00;45.30;;;;;;5012060;28;20426;-68
2023/05/13 06:12:21;;;;;;;343.50;321.97;;;11.10;44.40;;;;;;5010632;28;20234;-68
2023/05/13 06:14:47;;;;;;;346.90;325.83;;;11.10;43.50;;;;;;5010920;28;20235;-68
2023/05/13 06:17:13;;;;;;;414.20;389.17;;;11.00;43.00;;;;;;5010943;28;20426;-68
2023/05/13 06:19:42;;;;;;;495.47;465.87;;;11.00;43.00;;;;;;5012108;28;20983;-68
2023/05/13 06:22:08;;;;;;;356.23;334.43;;;11.00;42.90;;;;;;5012003;28;20537;-68
2023/05/13 06:24:34;;;;;;;439.83;414.37;;;11.00;43.00;;;;;;5012362;28;20458;-69
2023/05/13 06:27:00;;;;;;;388.67;366.30;;;11.10;42.30;;;;;;5012221;28;20418;-69
2023/05/13 06:29:26;;;;;;;458.70;431.10;;;11.10;42.30;;;;;;5014029;28;20215;-69
2023/05/13 06:31:52;;;;;;;414.97;390.27;;;11.20;41.40;;;;;;5015888;28;20423;-69
2023/05/13 06:34:17;;;;;;;475.20;446.17;;;11.30;40.50;;;;;;5016169;28;20203;-69
2023/05/13 06:36:43;;;;;;;324.83;305.60;;;11.20;40.80;;;;;;5015905;28;20704;-69
2023/05/13 06:39:10;;;;;;;535.63;501.20;;;11.30;41.10;;;;;;5016219;28;20235;-69
2023/05/13 06:41:37;;;;;;;332.50;313.83;;;11.30;41.00;;;;;;5015944;28;20449;-69
2023/05/13 06:44:02;;;;;;;456.37;428.77;;;11.30;41.20;;;;;;5014906;28;20477;-69
2023/05/13 06:46:28;;;;;;;483.20;454.27;;;11.20;39.50;;;;;;5016179;28;20422;-69
2023/05/13 06:48:55;;;;;;;374.97;351.73;;;11.10;40.50;;;;;;5016047;28;20264;-69
2023/05/13 06:51:21;;;;;;;410.97;386.37;;;11.20;40.90;;;;;;5015999;28;20172;-69
2023/05/13 06:53:47;;;;;;;425.03;398.80;;;11.20;40.00;;;;;;5014738;28;20449;-69
2023/05/13 06:56:12;;;;;;;365.90;344.47;;;11.10;39.80;;;;;;5015771;28;20179;-69
2023/05/13 06:58:38;;;;;;;459.57;431.33;;;11.10;40.40;;;;;;5015731;28;20181;-69
2023/05/13 07:01:03;;;;;;;313.47;294.03;;;11.20;40.30;;;;;;5014376;28;20643;-69
2023/05/13 07:03:29;;;;;;;384.57;361.50;;;11.20;39.70;;;;;;5014940;28;20239;-69
2023/05/13 07:05:55;;;;;;;496.07;466.60;;;11.20;39.00;;;;;;5015386;28;20187;-69
2023/05/13 07:08:20;;;;;;;397.50;375.33;;;11.10;38.80;;;;;;5015443;28;20226;-69
2023/05/13 07:10:46;;;;;;;381.67;359.50;;;11.10;39.90;;;;;;5015235;28;20637;-69
2023/05/13 07:13:11;;;;;;;464.03;436.73;;;11.10;39.50;;;;;;5015199;28;20211;-69
2023/05/13 07:15:37;;;;;;;365.73;343.27;;;11.10;39.60;;;;;;5014208;28;20186;-69
2023/05/13 07:18:03;;;;;;;365.87;343.63;;;11.10;39.50;;;;;;5015078;28;20199;-69
2023/05/13 07:20:29;;;;;;;482.47;453.00;;;11.10;39.80;;;;;;5013849;28;20190;-67
2023/05/13 07:22:54;;;;;;;452.00;424.33;;;11.00;39.30;;;;;;5014864;28;20220;-68
2023/05/13 07:25:20;;;;;;;410.93;387.47;;;11.00;39.50;;;;;;5015130;28;20521;-68
2023/05/13 07:27:46;;;;;;;505.60;473.57;;;10.90;39.80;;;;;;5013555;28;20203;-67
2023/05/13 07:30:12;;;;;;;543.57;508.63;;;10.80;40.30;;;;;;5014971;28;20180;-68
2023/05/13 07:32:39;;;;;;;384.67;361.57;;;10.80;41.20;;;;;;5014463;28;20462;-68
2023/05/13 07:35:05;;;;;;;511.43;478.37;;;10.90;42.10;;;;;;5013638;28;20932;-68
2023/05/13 07:37:31;;;;;;;417.47;390.47;;;11.10;40.40;;;;;;5015045;28;20450;-68
2023/05/13 07:39:56;;;;;;;329.43;310.33;;;11.10;39.60;;;;;;5014228;28;20447;-68
2023/05/13 07:42:23;;;;;;;342.27;321.77;;;11.20;39.60;;;;;;5014117;28;20212;-68
2023/05/13 07:44:48;;;;;;;390.77;368.07;;;11.30;39.90;;;;;;5015402;28;20172;-68
2023/05/13 07:47:14;;;;;;;366.40;344.27;;;11.20;39.10;;;;;;5015004;28;20467;-69
2023/05/13 07:49:39;;;;;;;355.57;334.90;;;11.30;39.10;;;;;;5015606;28;20188;-68
2023/05/13 07:52:05;;;;;;;368.67;346.57;;;11.40;38.80;;;;;;5017100;28;20184;-68
2023/05/13 07:54:31;;;;;;;459.13;430.47;;;11.40;39.30;;;;;;5023565;28;20199;-69
2023/05/13 07:56:57;;;;;;;397.33;372.87;;;11.50;38.20;;;;;;5024199;28;20669;-68
2023/05/13 07:59:22;;;;;;;413.30;389.40;;;11.50;38.20;;;;;;5015174;28;20202;-68
2023/05/13 08:01:48;;;;;;;395.60;371.13;;;11.50;37.40;;;;;;5014538;28;20956;-69
2023/05/13 08:04:13;;;;;;;403.23;377.07;;;11.50;37.30;;;;;;5014476;28;20677;-69
2023/05/13 08:06:39;;;;;;;396.33;371.53;;;11.60;37.00;;;;;;5014445;28;20208;-69
2023/05/13 08:09:05;;;;;;;400.10;375.27;;;11.70;36.80;;;;;;5014228;28;20250;-69
2023/05/13 08:11:31;;;;;;;424.77;399.10;;;11.80;36.20;;;;;;5014204;28;20303;-69
2023/05/13 08:13:56;;;;;;;434.97;408.03;;;11.80;36.60;;;;;;5014885;28;20471;-69
2023/05/13 08:16:22;;;;;;;340.33;319.70;;;11.70;36.20;;;;;;5014532;28;20182;-69
2023/05/13 08:18:48;;;;;;;387.30;363.70;;;11.60;36.60;;;;;;5014313;28;20600;-68
2023/05/13 08:21:13;;;;;;;479.10;449.87;;;11.70;36.60;;;;;;5014067;28;20200;-68
2023/05/13 08:23:39;;;;;;;359.00;336.60;;;11.70;36.20;;;;;;5013916;28;20220;-68
2023/05/13 08:26:04;;;;;;;470.13;440.90;;;11.80;37.00;;;;;;5014242;28;20210;-69
2023/05/13 08:28:30;;;;;;;458.33;429.20;;;11.90;35.80;;;;;;5014055;28;20575;-69
2023/05/13 08:31:01;;;;;;;497.00;466.53;;;12.00;35.70;;;;;;5013901;28;20188;-69
2023/05/13 08:33:30;;;;;;;586.37;548.83;;;12.00;34.20;;;;;;5013509;28;20277;-69
2023/05/13 08:35:57;;;;;;;441.23;413.27;;;12.10;34.10;;;;;;5013829;28;20474;-69
2023/05/13 08:38:23;;;;;;;404.60;379.50;;;12.00;33.60;;;;;;5014068;28;20908;-69
2023/05/13 08:40:48;;;;;;;408.13;383.27;;;12.10;33.40;;;;;;5013785;28;20430;-69
2023/05/13 08:43:15;;;;;;;402.13;377.63;;;12.00;33.30;;;;;;5013285;28;20317;-68
2023/05/13 08:45:44;;;;;;;406.53;382.83;;;12.10;34.60;;;;;;5013488;28;20187;-69
2023/05/13 08:48:11;;;;;;;501.47;469.57;;;12.00;33.40;;;;;;5013553;28;20446;-69
2023/05/13 08:50:37;;;;;;;482.57;451.93;;;12.00;33.00;;;;;;5012227;28;20423;-69
2023/05/13 08:53:03;;;;;;;448.83;422.43;;;12.10;33.00;;;;;;5013236;28;20456;-69
2023/05/13 08:55:29;;;;;;;445.37;417.17;;;12.20;32.90;;;;;;5013491;28;20786;-69
2023/05/13 08:57:55;;;;;;;532.30;500.33;;;12.30;32.50;;;;;;5012032;28;20436;-69
2023/05/13 09:00:20;;;;;;;504.67;473.67;;;12.30;31.50;;;;;;5013293;28;20191;-69
2023/05/13 09:02:47;;;;;;;428.30;402.43;;;12.30;31.90;;;;;;5011829;28;20219;-69
2023/05/13 09:05:14;;;;;;;444.40;417.17;;;12.30;31.90;;;;;;5013082;28;20434;-69
2023/05/13 09:07:39;;;;;;;418.27;392.90;;;12.30;30.70;;;;;;5013148;28;20412;-69
2023/05/13 09:10:07;;;;;;;452.83;424.77;;;12.40;30.60;;;;;;5013172;28;20450;-69
2023/05/13 09:12:47;;;;;;;494.73;465.57;;;12.40;30.50;;;;;;5012369;28;20207;-70
2023/05/13 09:15:18;;;;;;;543.03;506.73;;;12.40;30.80;;;;;;5014073;28;20426;-69
2023/05/13 09:17:47;;;;;;;444.93;418.97;;;12.60;29.60;;;;;;5014016;28;20431;-69
2023/05/13 09:20:15;;;;;;;514.50;482.70;;;12.50;29.60;;;;;;5014243;28;20415;-70
2023/05/13 09:22:49;;;;;;;507.13;476.03;;;12.50;29.90;;;;;;5013479;28;20735;-68
2023/05/13 09:25:16;;;;;;;455.70;427.63;;;12.50;29.00;;;;;;5012170;28;20412;-69
2023/05/13 09:27:45;;;;;;;468.13;440.27;;;12.50;29.20;;;;;;5013621;28;20417;-69
2023/05/13 09:30:11;;;;;;;526.03;493.53;;;12.70;29.20;;;;;;5013581;28;20413;-68
2023/05/13 09:32:37;;;;;;;579.00;544.30;;;12.80;28.70;;;;;;5013206;28;20968;-68
2023/05/13 09:35:17;;;;;;;535.90;504.13;;;12.90;28.50;;;;;;5013423;28;20250;-68
2023/05/13 09:37:47;;;;;;;524.30;492.03;;;13.10;27.90;;;;;;5012999;28;20859;-68
2023/05/13 09:40:15;;;;;;;567.20;530.93;;;13.10;27.50;;;;;;5011697;28;20424;-68
2023/05/13 09:42:45;;;;;;;547.33;512.33;;;13.10;27.70;;;;;;5012416;28;20476;-69
2023/05/13 09:45:15;;;;;;;553.50;519.70;;;13.10;27.10;;;;;;5012943;28;20502;-68
2023/05/13 09:47:41;;;;;;;587.30;551.67;;;13.20;26.80;;;;;;5011236;28;20432;-68
2023/05/13 09:50:08;;;;;;;505.30;473.73;;;13.20;26.60;;;;;;5012521;28;20414;-68
2023/05/13 09:52:35;;;;;;;466.17;438.13;;;13.40;26.40;;;;;;5012210;28;20511;-68
2023/05/13 09:55:03;;;;;;;528.67;495.90;;;13.50;26.00;;;;;;5012515;28;20785;-68
2023/05/13 09:57:33;;;;;;;522.77;490.27;;;13.40;25.90;;;;;;5015161;28;20432;-69
2023/05/13 10:00:00;;;;;;;538.13;506.27;;;13.30;26.30;;;;;;5013735;28;20407;-69
2023/05/13 10:02:26;;;;;;;515.47;483.93;;;13.30;26.90;;;;;;5012431;28;20473;-69
2023/05/13 10:04:55;;;;;;;534.73;503.03;;;13.30;27.10;;;;;;5014631;28;20928;-69
2023/05/13 10:07:24;;;;;;;715.30;669.30;;;13.40;26.10;;;;;;5017073;28;20415;-69
2023/05/13 10:09:57;;;;;;;587.40;548.40;;;13.40;26.30;;;;;;5016845;28;20410;-69
2023/05/13 10:12:26;;;;;;;546.63;513.70;;;13.50;25.90;;;;;;5016555;28;20437;-69
2023/05/13 10:14:53;;;;;;;542.57;508.83;;;13.40;27.30;;;;;;5016415;28;20418;-68
2023/05/13 10:17:23;;;;;;;626.00;586.57;;;13.30;26.30;;;;;;5015180;28;20407;-68
2023/05/13 10:19:50;;;;;;;547.37;513.93;;;13.20;26.70;;;;;;5016422;28;20422;-68
2023/05/13 10:22:32;;;;;;;522.93;491.47;;;13.10;27.00;;;;;;5016110;28;20817;-68
2023/05/13 10:24:59;;;;;;;509.90;478.53;;;13.10;26.60;;;;;;5016290;28;20419;-69
2023/05/13 10:27:28;;;;;;;478.53;448.03;;;13.10;27.10;;;;;;5016551;28;20414;-68
2023/05/13 10:29:55;;;;;;;477.47;447.73;;;13.20;26.60;;;;;;5015761;28;20521;-68
2023/05/13 10:32:29;;;;;;;544.57;510.90;;;13.10;27.10;;;;;;5016160;28;20480;-69
2023/05/13 10:35:16;;;;;;;568.60;532.93;;;13.20;27.40;;;;;;5021951;28;20421;-69
2023/05/13 10:38:02;;;;;;;597.77;559.90;;;13.20;26.30;;;;;;5022291;28;20433;-68
2023/05/13 10:41:06;;;;;;;534.50;499.83;;;13.10;26.90;;;;;;5021125;28;20431;-68
2023/05/13 10:43:33;;;;;;;551.27;516.63;;;13.10;26.60;;;;;;5021908;28;20466;-68
2023/05/13 10:46:02;;;;;;;526.73;494.40;;;13.10;26.80;;;;;;5022073;28;20936;-69
2023/05/13 10:48:49;;;;;;;588.20;552.00;;;13.10;26.80;;;;;;5022505;28;20415;-68
2023/05/13 10:51:16;;;;;;;681.93;632.23;;;13.30;26.40;;;;;;5022488;28;20410;-69
2023/05/13 10:53:46;;;;;;;538.03;505.13;;;13.40;25.10;;;;;;5021230;28;20428;-68
2023/05/13 10:56:12;;;;;;;620.90;578.77;;;13.40;25.60;;;;;;5022581;28;20439;-69
2023/05/13 10:58:38;;;;;;;579.30;543.00;;;13.40;24.90;;;;;;5020154;28;20425;-68
2023/05/13 11:01:28;;;;;;;592.80;556.07;;;13.50;25.90;;;;;;5021538;28;20422;-68
2023/05/13 11:03:56;;;;;;;591.80;555.70;;;13.60;25.10;;;;;;5022847;28;20600;-69
2023/05/13 11:06:35;;;;;;;680.53;632.63;;;13.80;25.20;;;;;;5023145;28;21118;-69
2023/05/13 11:09:07;;;;;;;508.90;478.27;;;13.70;25.00;;;;;;5022924;28;20920;-69
2023/05/13 11:11:35;;;;;;;607.27;569.73;;;13.70;25.10;;;;;;5021889;28;20410;-68
2023/05/13 11:14:15;;;;;;;570.67;534.13;;;13.70;25.10;;;;;;5021203;28;20475;-68
2023/05/13 11:17:08;;;;;;;576.23;540.20;;;13.90;24.60;;;;;;5020795;28;20955;-69
2023/05/13 11:19:43;;;;;;;595.00;557.97;;;13.90;24.00;;;;;;5017698;28;20431;-69
2023/05/13 11:22:22;;;;;;;558.27;524.10;;;14.00;24.50;;;;;;5020182;28;20468;-68
2023/05/13 11:25:08;;;;;;;622.10;581.90;;;14.10;23.80;;;;;;5021121;28;20436;-69
2023/05/13 11:27:39;;;;;;;526.13;493.60;;;14.00;24.10;;;;;;5020673;28;20429;-69
2023/05/13 11:30:21;;;;;;;714.50;668.20;;;14.00;23.60;;;;;;5020459;28;20797;-68
2023/05/13 11:32:50;;;;;;;601.10;562.80;;;14.10;23.70;;;;;;5018840;28;20469;-69
2023/05/13 11:35:29;;;;;;;675.40;633.43;;;14.10;23.00;;;;;;5020627;28;20852;-68
2023/05/13 11:37:56;;;;;;;655.10;614.00;;;14.20;23.70;;;;;;5019882;28;20414;-68
2023/05/13 11:40:22;;;;;;;638.40;596.03;;;14.50;23.50;;;;;;5019477;28;20421;-69
2023/05/13 11:42:48;;;;;;;518.30;486.17;;;14.80;21.60;;;;;;5018748;28;20483;-68
2023/05/13 11:45:16;;;;;;;490.53;460.23;;;14.80;21.10;;;;;;5019720;28;20191;-68
2023/05/13 11:47:41;;;;;;;567.23;533.13;;;14.80;21.30;;;;;;5020535;28;20780;-69
2023/05/13 11:50:31;;;;;;;591.93;555.33;;;14.60;21.50;;;;;;5019053;28;20481;-69
2023/05/13 11:52:59;;;;;;;565.07;529.67;;;14.60;20.90;;;;;;5019484;28;20210;-69
2023/05/13 11:55:28;;;;;;;681.87;636.40;;;14.60;21.20;;;;;;5019704;28;20449;-69
2023/05/13 11:57:54;;;;;;;554.20;520.33;;;14.30;21.10;;;;;;5020416;28;20438;-68
2023/05/13 12:00:28;;;;;;;508.67;478.43;;;14.20;21.30;;;;;;5019803;28;20415;-68
2023/05/13 12:02:54;;;;;;;554.57;520.40;;;14.40;21.40;;;;;;5018062;28;20613;-69
2023/05/13 12:05:21;;;;;;;508.17;477.40;;;14.50;21.40;;;;;;5020354;28;20414;-68
2023/05/13 12:07:47;;;;;;;675.30;630.90;;;14.50;21.30;;;;;;5019016;28;20426;-68
2023/05/13 12:10:13;;;;;;;651.50;610.13;;;14.30;20.80;;;;;;5020176;28;20422;-70